Time;durP1;ratioP1;P1;durP2;ratioP2;P2;SDS_P1;SDS_P2;PMS_P1;PMS_P2;Temp;Humidity;BMP_temperature;BMP_pressure;BME280_temperature;BME280_humidity;BME280_pressure;Samples;Min_cycle;Max_cycle;Signal;HPM_P1;HPM_P2
2021/11/06 00:01:34;;;;;;;12.50;10.45;;;;;;;9.74;63.40;99663.88;5133163;27;20027;-52
2021/11/06 00:04:01;;;;;;;7.05;5.25;;;;;;;9.85;63.09;99667.91;5133090;27;20374;-52
2021/11/06 00:06:26;;;;;;;9.05;5.78;;;;;;;9.93;62.58;99669.66;5133154;27;20519;-52
2021/11/06 00:08:52;;;;;;;6.43;5.82;;;;;;;9.97;62.53;99665.72;5132630;27;20043;-52
2021/11/06 00:11:18;;;;;;;6.18;5.57;;;;;;;10.05;62.51;99664.88;5133055;27;20027;-51
2021/11/06 00:13:43;;;;;;;7.03;5.70;;;;;;;10.08;62.29;99667.13;5114015;28;20031;-52
2021/11/06 00:16:09;;;;;;;6.88;5.75;;;;;;;10.16;61.88;99675.78;5132945;27;20610;-52
2021/11/06 00:18:35;;;;;;;6.72;5.53;;;;;;;10.09;61.65;99677.44;5132930;27;20042;-52
2021/11/06 00:21:01;;;;;;;9.10;6.05;;;;;;;10.05;62.02;99678.78;5132924;27;20103;-52
2021/11/06 00:23:26;;;;;;;7.03;6.15;;;;;;;10.14;61.81;99680.38;5132822;27;20027;-52
2021/11/06 00:25:52;;;;;;;7.95;6.40;;;;;;;10.22;61.88;99682.13;5132847;27;20042;-51
2021/11/06 00:28:18;;;;;;;26.13;22.98;;;;;;;10.27;61.62;99689.50;5114388;27;20113;-52
2021/11/06 00:30:43;;;;;;;175.70;157.93;;;;;;;10.32;61.56;99680.16;5114236;27;20019;-52
2021/11/06 00:33:09;;;;;;;73.18;65.35;;;;;;;10.38;61.38;99673.38;5132767;27;20025;-52
2021/11/06 00:35:35;;;;;;;95.50;84.78;;;;;;;10.39;60.83;99678.44;5132683;27;20160;-52
2021/11/06 00:38:01;;;;;;;14.48;13.07;;;;;;;10.38;61.30;99676.00;5132791;28;20397;-52
2021/11/06 00:40:26;;;;;;;22.23;16.55;;;;;;;10.40;61.22;99671.38;5132722;28;20437;-52
2021/11/06 00:42:53;;;;;;;8.27;7.15;;;;;;;10.42;61.17;99674.66;5132600;28;20023;-52
2021/11/06 00:45:18;;;;;;;10.30;7.50;;;;;;;10.43;61.11;99671.03;5114139;28;20066;-52
2021/11/06 00:47:45;;;;;;;9.52;7.80;;;;;;;10.47;60.84;99671.53;5132691;28;20051;-52
2021/11/06 00:50:16;;;;;;;7.75;6.50;;;;;;;10.46;60.64;99673.31;5132559;28;20478;-52
2021/11/06 00:52:42;;;;;;;9.57;7.28;;;;;;;10.42;60.56;99677.28;5132672;28;20028;-52
2021/11/06 00:55:08;;;;;;;8.50;6.75;;;;;;;10.40;60.79;99676.63;5132563;28;20023;-51
2021/11/06 00:57:34;;;;;;;10.35;6.78;;;;;;;10.40;60.94;99674.00;5114232;28;20360;-52
2021/11/06 01:00:00;;;;;;;8.48;7.57;;;;;;;10.30;60.98;99683.91;5114108;28;20028;-52
2021/11/06 01:02:25;;;;;;;8.20;6.90;;;;;;;10.25;61.07;99684.41;5132453;28;20028;-52
2021/11/06 01:04:51;;;;;;;8.20;6.60;;;;;;;10.20;60.66;99678.84;5114176;28;20023;-52
2021/11/06 01:07:17;;;;;;;9.60;6.93;;;;;;;10.17;60.79;99677.41;5113831;28;20113;-54
2021/11/06 01:09:43;;;;;;;10.80;7.45;;;;;;;10.11;60.88;99683.34;5132592;28;20480;-51
2021/11/06 01:12:09;;;;;;;10.80;7.00;;;;;;;10.09;60.86;99680.06;5132425;28;20404;-51
2021/11/06 01:14:35;;;;;;;12.32;6.80;;;;;;;10.08;61.04;99688.09;5113924;28;20028;-51
2021/11/06 01:17:01;;;;;;;8.32;6.97;;;;;;;10.04;60.88;99686.81;5113928;28;20441;-51
2021/11/06 01:19:26;;;;;;;10.48;7.35;;;;;;;10.09;61.03;99687.94;5132360;28;20023;-52
2021/11/06 01:21:52;;;;;;;8.32;7.55;;;;;;;10.18;61.02;99684.28;5132294;28;20023;-52
2021/11/06 01:24:18;;;;;;;9.85;7.82;;;;;;;10.17;60.42;99687.09;5114211;27;20035;-52
2021/11/06 01:26:44;;;;;;;10.23;7.28;;;;;;;10.05;60.73;99684.03;5136192;27;20064;-51
2021/11/06 01:29:09;;;;;;;10.13;7.40;;;;;;;10.04;60.95;99692.91;5136187;27;20026;-51
2021/11/06 01:31:35;;;;;;;9.00;8.00;;;;;;;10.09;61.02;99695.00;5136049;27;20442;-52
2021/11/06 01:34:01;;;;;;;11.57;7.97;;;;;;;10.05;60.83;99697.16;5136083;27;20442;-51
2021/11/06 01:36:26;;;;;;;10.30;7.10;;;;;;;10.02;60.80;99694.88;5135987;27;20051;-52
2021/11/06 01:38:52;;;;;;;11.45;8.10;;;;;;;9.98;60.88;99686.53;5117529;27;20030;-52
2021/11/06 01:41:18;;;;;;;10.80;7.55;;;;;;;10.07;60.89;99691.72;5117428;27;20515;-52
2021/11/06 01:43:44;;;;;;;8.68;6.93;;;;;;;10.11;60.71;99685.97;5117297;27;20054;-52
2021/11/06 01:46:10;;;;;;;9.80;7.30;;;;;;;10.07;60.85;99687.31;5135828;27;20068;-51
2021/11/06 01:48:36;;;;;;;10.30;7.28;;;;;;;10.06;60.60;99685.69;5135771;27;20031;-51
2021/11/06 01:51:04;;;;;;;8.50;7.00;;;;;;;10.05;60.58;99686.66;5135692;27;20042;-52
2021/11/06 01:53:31;;;;;;;7.82;6.47;;;;;;;10.08;60.62;99685.47;5135687;27;20031;-52
2021/11/06 01:56:01;;;;;;;8.98;7.30;;;;;;;10.07;60.39;99679.44;5135618;27;20015;-51
2021/11/06 01:58:29;;;;;;;11.20;7.28;;;;;;;10.03;60.60;99679.94;5135588;27;20476;-51
2021/11/06 02:00:55;;;;;;;11.90;7.32;;;;;;;10.02;60.70;99683.56;5135532;27;20404;-51
2021/11/06 02:03:21;;;;;;;9.55;7.30;;;;;;;9.95;60.45;99675.56;5135406;27;20023;-51
2021/11/06 02:05:47;;;;;;;9.35;7.38;;;;;;;9.89;60.58;99681.50;5135388;27;20095;-51
2021/11/06 02:08:14;;;;;;;7.57;6.60;;;;;;;9.87;60.99;99683.47;5135159;27;20106;-52
2021/11/06 02:10:41;;;;;;;14.95;11.75;;;;;;;9.87;60.59;99684.28;5116849;27;20049;-52
2021/11/06 02:13:07;;;;;;;8.00;7.18;;;;;;;9.84;60.78;99686.41;5135256;27;20024;-51
2021/11/06 02:15:34;;;;;;;8.32;7.22;;;;;;;9.85;60.68;99683.63;5117087;27;20038;-51
2021/11/06 02:18:00;;;;;;;9.55;8.48;;;;;;;9.85;60.83;99701.19;5135258;27;20015;-52
2021/11/06 02:20:25;;;;;;;9.60;7.95;;;;;;;9.80;60.72;99704.31;5135125;27;20034;-52
2021/11/06 02:22:52;;;;;;;12.75;7.40;;;;;;;9.71;60.81;99700.88;5116556;27;20020;-51
2021/11/06 02:25:19;;;;;;;12.13;7.18;;;;;;;9.77;61.00;99700.22;5135105;27;20027;-51
2021/11/06 02:27:45;;;;;;;8.57;7.65;;;;;;;9.80;60.81;99699.88;5134996;27;20023;-52
2021/11/06 02:30:16;;;;;;;10.07;7.25;;;;;;;9.64;60.67;99699.09;5134991;27;20098;-52
2021/11/06 02:32:42;;;;;;;8.32;7.07;;;;;;;9.58;61.41;99698.00;5135003;27;20024;-51
2021/11/06 02:35:09;;;;;;;11.25;8.63;;;;;;;9.69;61.32;99697.63;5134888;27;20031;-51
2021/11/06 02:37:35;;;;;;;15.63;9.98;;;;;;;9.71;61.02;99693.03;5134271;27;20015;-51
2021/11/06 02:40:02;;;;;;;10.23;7.40;;;;;;;9.61;61.16;99692.41;5134798;27;20028;-52
2021/11/06 02:42:28;;;;;;;11.45;7.47;;;;;;;9.46;61.38;99694.91;5134698;27;20020;-52
2021/11/06 02:44:53;;;;;;;12.30;7.20;;;;;;;9.38;61.78;99701.00;5116232;27;20175;-52
2021/11/06 02:47:19;;;;;;;9.50;8.05;;;;;;;9.44;61.90;99691.66;5134574;27;20019;-52
2021/11/06 02:49:45;;;;;;;11.15;7.30;;;;;;;9.59;61.73;99702.25;5116095;27;20116;-52
2021/11/06 02:52:11;;;;;;;10.07;7.05;;;;;;;9.69;61.16;99702.88;5134585;27;20403;-52
2021/11/06 02:54:37;;;;;;;8.60;7.53;;;;;;;9.58;61.20;99708.50;5134520;27;20023;-52
2021/11/06 02:57:03;;;;;;;7.50;6.75;;;;;;;9.47;61.52;99720.13;5134441;27;20023;-52
2021/11/06 02:59:29;;;;;;;8.57;7.20;;;;;;;9.48;61.67;99707.88;5134397;27;20023;-51
2021/11/06 03:01:54;;;;;;;9.65;7.60;;;;;;;9.48;61.69;99710.47;5115920;27;20019;-51
2021/11/06 03:04:21;;;;;;;9.43;6.93;;;;;;;9.53;61.52;99708.16;5115742;27;20023;-51
2021/11/06 03:06:47;;;;;;;9.30;7.18;;;;;;;9.53;61.46;99708.97;5134254;27;20487;-52
2021/11/06 03:09:13;;;;;;;10.50;8.18;;;;;;;9.46;61.74;99715.06;5134025;27;20447;-52
2021/11/06 03:11:40;;;;;;;8.75;7.38;;;;;;;9.46;61.88;99710.66;5134129;27;20019;-51
2021/11/06 03:14:09;;;;;;;9.75;6.97;;;;;;;9.51;61.53;99710.94;5134103;27;20023;-52
2021/11/06 03:16:41;;;;;;;12.32;9.45;;;;;;;9.33;61.72;99711.16;5134029;27;20031;-52
2021/11/06 03:19:07;;;;;;;13.13;8.38;;;;;;;9.35;61.79;99709.19;5133966;27;20036;-52
2021/11/06 03:21:33;;;;;;;18.55;13.82;;;;;;;9.50;61.79;99708.50;5133946;27;20438;-52
2021/11/06 03:23:59;;;;;;;10.93;7.95;;;;;;;9.58;61.30;99700.63;5133827;27;20442;-52
2021/11/06 03:26:25;;;;;;;10.60;7.90;;;;;;;9.49;61.21;99702.44;5133767;27;20023;-51
2021/11/06 03:28:51;;;;;;;9.13;7.13;;;;;;;9.36;61.51;99702.97;5133786;27;20026;-52
2021/11/06 03:31:17;;;;;;;10.40;7.43;;;;;;;9.38;61.53;99702.81;5133767;27;20019;-52
2021/11/06 03:33:43;;;;;;;8.85;7.05;;;;;;;9.45;61.45;99703.75;5133680;27;20068;-51
2021/11/06 03:36:08;;;;;;;13.13;8.50;;;;;;;9.54;61.01;99694.91;5115163;27;20027;-51
2021/11/06 03:38:34;;;;;;;6.95;6.25;;;;;;;9.63;60.59;99708.78;5133672;27;20022;-51
2021/11/06 03:41:00;;;;;;;7.35;6.50;;;;;;;9.62;60.49;99701.09;5133545;27;20031;-52
2021/11/06 03:43:25;;;;;;;7.65;5.88;;;;;;;9.60;60.50;99709.13;5133480;27;20102;-51
2021/11/06 03:45:52;;;;;;;8.20;6.70;;;;;;;9.66;60.65;99702.38;5115036;27;20068;-52
2021/11/06 03:48:17;;;;;;;7.95;6.32;;;;;;;9.69;60.37;99708.09;5132619;27;20106;-52
2021/11/06 03:50:43;;;;;;;7.07;6.18;;;;;;;9.65;59.94;99703.38;5133409;27;20056;-52
2021/11/06 03:53:09;;;;;;;7.65;6.85;;;;;;;9.53;60.07;99705.53;5133366;27;20027;-52
2021/11/06 03:55:35;;;;;;;7.80;6.65;;;;;;;9.44;60.59;99709.16;5133286;27;20080;-52
2021/11/06 03:58:00;;;;;;;7.00;5.82;;;;;;;9.47;60.61;99720.13;5133270;27;20015;-52
2021/11/06 04:00:26;;;;;;;9.65;7.05;;;;;;;9.51;60.86;99710.13;5114746;27;20023;-51
2021/11/06 04:02:52;;;;;;;9.68;6.85;;;;;;;9.51;60.76;99718.00;5133114;27;20019;-51
2021/11/06 04:05:18;;;;;;;8.77;6.78;;;;;;;9.46;60.56;99715.06;5133156;27;20031;-51
2021/11/06 04:07:44;;;;;;;11.55;7.05;;;;;;;9.48;60.81;99711.28;5132901;27;20066;-51
2021/11/06 04:10:11;;;;;;;10.43;7.35;;;;;;;9.53;60.46;99721.25;5133105;27;20507;-52
2021/11/06 04:12:39;;;;;;;10.38;7.28;;;;;;;9.53;60.28;99716.03;5133127;27;20087;-51
2021/11/06 04:15:07;;;;;;;11.43;6.78;;;;;;;9.43;60.66;99712.78;5133045;27;20026;-51
2021/11/06 04:17:32;;;;;;;13.75;7.93;;;;;;;9.49;60.36;99719.97;5132994;27;20102;-51
2021/11/06 04:19:59;;;;;;;9.30;6.72;;;;;;;9.55;60.26;99716.66;5132861;27;20047;-52
2021/11/06 04:22:24;;;;;;;8.38;7.53;;;;;;;9.47;60.31;99725.38;5132851;27;20023;-51
2021/11/06 04:24:50;;;;;;;11.02;7.32;;;;;;;9.27;60.19;99729.34;5114482;27;20076;-51
2021/11/06 04:27:16;;;;;;;9.07;7.13;;;;;;;9.14;60.46;99725.44;5132840;27;20034;-52
2021/11/06 04:29:41;;;;;;;10.60;7.35;;;;;;;9.01;61.17;99722.47;5132794;27;20023;-51
2021/11/06 04:32:07;;;;;;;8.95;6.43;;;;;;;8.97;61.43;99729.88;5132759;27;20023;-52
2021/11/06 04:34:33;;;;;;;9.27;7.25;;;;;;;8.93;61.21;99736.41;5132807;28;20112;-52
2021/11/06 04:36:59;;;;;;;8.20;7.25;;;;;;;8.91;61.30;99732.31;5132768;27;20810;-52
2021/11/06 04:39:25;;;;;;;10.93;6.85;;;;;;;8.80;61.50;99736.88;5132732;28;20488;-52
2021/11/06 04:41:51;;;;;;;9.82;7.60;;;;;;;8.75;61.39;99740.97;5132627;28;20027;-51
2021/11/06 04:44:16;;;;;;;9.82;7.63;;;;;;;8.69;62.29;99749.47;5132621;28;20043;-51
2021/11/06 04:46:42;;;;;;;7.88;7.07;;;;;;;8.74;62.08;99745.38;5132934;28;20027;-51
2021/11/06 04:49:08;;;;;;;8.25;7.25;;;;;;;8.67;62.29;99740.97;5132657;28;20024;-51
2021/11/06 04:51:34;;;;;;;8.57;7.57;;;;;;;8.63;62.20;99752.72;5132634;28;20094;-51
2021/11/06 04:53:59;;;;;;;8.77;7.85;;;;;;;8.67;62.36;99751.41;5132602;28;20029;-51
2021/11/06 04:56:25;;;;;;;8.38;7.20;;;;;;;8.84;62.27;99753.09;5132571;28;20030;-52
2021/11/06 04:58:51;;;;;;;15.90;8.13;;;;;;;8.97;62.11;99757.81;5132609;27;20020;-51
2021/11/06 05:01:17;;;;;;;12.07;7.80;;;;;;;9.04;62.07;99755.41;5136412;27;20503;-52
2021/11/06 05:03:43;;;;;;;9.98;7.07;;;;;;;8.99;61.80;99758.47;5136607;27;20027;-52
2021/11/06 05:06:09;;;;;;;8.57;7.75;;;;;;;8.94;61.51;99752.94;5136634;27;20031;-51
2021/11/06 05:08:35;;;;;;;8.90;6.95;;;;;;;8.90;61.82;99756.84;5136254;27;20046;-51
2021/11/06 05:11:00;;;;;;;9.73;7.72;;;;;;;8.96;61.84;99746.53;5136522;27;20023;-51
2021/11/06 05:13:26;;;;;;;8.38;6.95;;;;;;;9.01;61.66;99748.66;5136517;27;20026;-51
2021/11/06 05:15:52;;;;;;;11.18;8.20;;;;;;;9.08;61.50;99751.47;5136418;27;20057;-52
2021/11/06 05:18:18;;;;;;;12.40;7.82;;;;;;;9.15;61.38;99749.81;5136406;27;20080;-52
2021/11/06 05:20:44;;;;;;;10.80;7.55;;;;;;;9.10;61.42;99741.66;5136404;27;20037;-52
2021/11/06 05:23:13;;;;;;;8.48;7.03;;;;;;;9.02;61.56;99752.94;5117722;27;20046;-52
2021/11/06 05:25:40;;;;;;;8.65;6.75;;;;;;;8.95;61.43;99746.69;5136183;27;20361;-51
2021/11/06 05:28:06;;;;;;;10.70;7.47;;;;;;;8.93;62.03;99749.50;5136486;27;20032;-52
2021/11/06 05:30:32;;;;;;;12.15;8.60;;;;;;;9.00;61.82;99744.41;5136159;27;20064;-52
2021/11/06 05:32:58;;;;;;;11.07;7.57;;;;;;;9.08;62.05;99751.47;5117668;27;20458;-51
2021/11/06 05:35:24;;;;;;;20.05;12.10;;;;;;;9.20;61.64;99742.28;5136282;27;20030;-52
2021/11/06 05:37:50;;;;;;;9.10;8.10;;;;;;;9.23;61.17;99744.56;5136051;27;20045;-51
2021/11/06 05:40:15;;;;;;;8.35;7.45;;;;;;;9.18;61.34;99745.06;5135900;27;20067;-52
2021/11/06 05:42:41;;;;;;;10.00;8.23;;;;;;;9.15;61.24;99736.72;5117361;27;20099;-52
2021/11/06 05:45:09;;;;;;;9.35;8.13;;;;;;;9.07;61.49;99747.19;5135858;27;20108;-52
2021/11/06 05:47:36;;;;;;;8.90;7.78;;;;;;;9.00;61.63;99747.03;5135740;27;20027;-52
2021/11/06 05:50:04;;;;;;;11.52;8.30;;;;;;;8.93;61.93;99748.66;5135820;27;20035;-52
2021/11/06 05:52:30;;;;;;;10.73;7.93;;;;;;;9.10;61.67;99752.94;5135709;27;20399;-52
2021/11/06 05:54:55;;;;;;;11.07;8.75;;;;;;;9.18;61.21;99754.72;5117274;27;20023;-52
2021/11/06 05:57:22;;;;;;;13.50;7.97;;;;;;;9.26;60.88;99749.47;5135668;27;20019;-51
2021/11/06 05:59:47;;;;;;;8.65;7.75;;;;;;;9.27;60.18;99752.91;5135654;27;20094;-52
2021/11/06 06:02:13;;;;;;;14.18;9.00;;;;;;;9.19;60.86;99751.13;5117041;27;20168;-51
2021/11/06 06:04:39;;;;;;;10.02;8.18;;;;;;;9.21;61.03;99749.16;5117041;27;20015;-52
2021/11/06 06:07:05;;;;;;;13.43;7.85;;;;;;;9.26;60.43;99748.66;5135449;27;20019;-51
2021/11/06 06:09:30;;;;;;;10.63;8.40;;;;;;;9.27;60.48;99753.72;5116793;27;20047;-51
2021/11/06 06:11:56;;;;;;;12.20;8.45;;;;;;;9.23;60.76;99754.22;5134428;27;20046;-51
2021/11/06 06:14:22;;;;;;;9.57;8.00;;;;;;;9.21;60.67;99759.63;5135370;27;20508;-51
2021/11/06 06:16:47;;;;;;;11.90;7.88;;;;;;;9.15;60.80;99766.34;5135269;27;20514;-51
2021/11/06 06:19:13;;;;;;;13.68;8.88;;;;;;;9.08;60.90;99775.03;5116775;27;20027;-51
2021/11/06 06:21:39;;;;;;;14.75;8.10;;;;;;;8.94;60.77;99776.50;5116712;27;20447;-51
2021/11/06 06:24:04;;;;;;;10.85;7.80;;;;;;;8.97;61.00;99776.16;5135064;27;20549;-51
2021/11/06 06:26:30;;;;;;;12.00;8.45;;;;;;;8.91;61.09;99782.03;5135317;27;20430;-52
2021/11/06 06:28:56;;;;;;;14.75;8.70;;;;;;;8.92;61.00;99783.69;5135102;27;20151;-52
2021/11/06 06:31:21;;;;;;;13.57;8.20;;;;;;;8.95;61.28;99791.22;5134969;27;20016;-51
2021/11/06 06:33:47;;;;;;;10.82;8.65;;;;;;;9.01;61.17;99798.41;5134958;27;20016;-51
2021/11/06 06:36:13;;;;;;;10.75;7.63;;;;;;;8.98;60.65;99798.75;5134846;27;20600;-51
2021/11/06 06:38:39;;;;;;;9.13;7.97;;;;;;;8.91;60.92;99795.94;5134812;27;20023;-52
2021/11/06 06:41:04;;;;;;;10.38;7.82;;;;;;;8.89;60.63;99790.06;5134838;27;20015;-52
2021/11/06 06:43:30;;;;;;;9.98;8.27;;;;;;;8.76;60.48;99795.78;5134674;27;20020;-51
2021/11/06 06:45:56;;;;;;;14.43;8.30;;;;;;;8.61;60.92;99794.75;5134700;27;20096;-51
2021/11/06 06:48:22;;;;;;;12.65;8.32;;;;;;;8.51;61.10;99804.53;5134700;27;20396;-51
2021/11/06 06:50:49;;;;;;;10.80;8.32;;;;;;;8.43;61.86;99812.34;5116164;27;20019;-52
2021/11/06 06:53:17;;;;;;;10.23;9.10;;;;;;;8.38;61.69;99820.66;5134558;27;20396;-51
2021/11/06 06:55:43;;;;;;;10.98;8.40;;;;;;;8.48;61.92;99816.16;5134530;27;20556;-52
2021/11/06 06:58:09;;;;;;;11.13;8.57;;;;;;;8.62;61.46;99816.53;5134485;27;20369;-51
2021/11/06 07:00:36;;;;;;;13.52;9.20;;;;;;;8.63;61.59;99820.75;5134429;27;20022;-51
2021/11/06 07:03:03;;;;;;;11.18;8.63;;;;;;;8.59;61.92;99834.19;5115766;27;20023;-52
2021/11/06 07:05:29;;;;;;;9.82;8.75;;;;;;;8.62;61.69;99832.22;5134261;27;20488;-51
2021/11/06 07:07:56;;;;;;;10.32;8.05;;;;;;;8.67;61.87;99837.78;5115531;27;20058;-52
2021/11/06 07:10:22;;;;;;;14.68;8.80;;;;;;;8.89;61.37;99838.97;5115739;27;20366;-51
2021/11/06 07:12:49;;;;;;;11.75;8.30;;;;;;;9.06;60.61;99843.28;5134164;27;20091;-51
2021/11/06 07:15:15;;;;;;;11.35;9.40;;;;;;;9.09;60.56;99844.75;5134107;27;20019;-52
2021/11/06 07:17:41;;;;;;;12.00;8.23;;;;;;;9.15;60.52;99846.72;5134059;27;20561;-51
2021/11/06 07:20:08;;;;;;;12.63;8.10;;;;;;;9.24;60.12;99847.56;5115430;27;20080;-51
2021/11/06 07:22:35;;;;;;;10.35;7.93;;;;;;;9.30;59.62;99842.47;5133786;27;20038;-51
2021/11/06 07:25:01;;;;;;;10.10;8.57;;;;;;;9.28;59.55;99848.88;5133922;27;20047;-52
2021/11/06 07:27:26;;;;;;;9.65;8.07;;;;;;;9.22;59.74;99847.72;5134032;27;20102;-52
2021/11/06 07:29:52;;;;;;;11.95;9.02;;;;;;;9.16;59.65;99843.13;5133830;27;20027;-52
2021/11/06 07:32:18;;;;;;;15.65;8.60;;;;;;;9.19;59.97;99848.88;5133788;27;20072;-52
2021/11/06 07:37:10;;;;;;;13.60;7.72;;;;;;;9.12;59.62;99849.66;5133677;27;20079;-52
2021/11/06 07:39:35;;;;;;;14.95;9.63;;;;;;;9.19;59.66;99855.88;5134274;27;20106;-51
2021/11/06 07:42:01;;;;;;;15.18;8.98;;;;;;;9.14;59.88;99850.31;5133568;27;20042;-52
2021/11/06 07:44:27;;;;;;;12.55;9.02;;;;;;;9.07;59.95;99846.69;5133454;27;20027;-52
2021/11/06 07:46:53;;;;;;;12.20;8.48;;;;;;;8.99;59.81;99848.34;5115068;27;20385;-52
2021/11/06 07:49:18;;;;;;;15.07;8.88;;;;;;;9.11;60.00;99858.50;5133434;27;20050;-52
2021/11/06 07:51:44;;;;;;;10.63;8.60;;;;;;;9.17;60.20;99861.28;5114975;27;20035;-52
2021/11/06 07:54:10;;;;;;;14.95;8.90;;;;;;;9.18;59.96;99860.31;5133365;27;20019;-51
2021/11/06 07:56:38;;;;;;;12.43;7.70;;;;;;;9.42;59.87;99847.38;5114826;27;20056;-52
2021/11/06 07:59:05;;;;;;;11.02;8.35;;;;;;;9.53;59.24;99847.06;5133283;27;20030;-52
2021/11/06 08:01:31;;;;;;;11.43;10.23;;;;;;;9.53;59.37;99849.66;5133255;27;20022;-52
2021/11/06 08:03:56;;;;;;;12.52;9.38;;;;;;;9.56;58.86;99851.97;5114723;27;20102;-51
2021/11/06 08:06:22;;;;;;;10.82;9.02;;;;;;;9.53;59.36;99860.97;5133187;27;20095;-52
2021/11/06 08:08:48;;;;;;;9.65;8.13;;;;;;;9.56;59.14;99857.22;5132961;27;20047;-51
2021/11/06 08:11:14;;;;;;;13.02;8.25;;;;;;;9.66;58.56;99852.63;5133076;27;20061;-52
2021/11/06 08:13:39;;;;;;;13.88;9.95;;;;;;;9.80;58.48;99853.75;5114612;27;20049;-52
2021/11/06 08:16:05;;;;;;;12.15;9.45;;;;;;;9.83;58.45;99855.22;5133054;27;20055;-52
2021/11/06 08:18:32;;;;;;;12.13;9.30;;;;;;;9.90;58.20;99861.41;5133008;27;20585;-51
2021/11/06 08:20:58;;;;;;;10.82;9.20;;;;;;;9.94;57.90;99860.94;5132972;27;20024;-52
2021/11/06 08:23:24;;;;;;;9.60;8.60;;;;;;;9.90;58.19;99867.50;5132908;27;20042;-51
2021/11/06 08:25:50;;;;;;;16.33;8.88;;;;;;;9.85;58.11;99871.59;5132864;27;20043;-51
2021/11/06 08:28:16;;;;;;;14.50;10.63;;;;;;;9.80;57.95;99872.09;5132827;27;20102;-52
2021/11/06 08:30:42;;;;;;;10.60;8.77;;;;;;;9.74;58.14;99875.38;5132855;27;20019;-52
2021/11/06 08:33:08;;;;;;;9.52;8.30;;;;;;;9.74;57.64;99870.16;5114380;28;20082;-52
2021/11/06 08:35:34;;;;;;;9.23;8.30;;;;;;;9.59;58.21;99873.41;5113822;27;20496;-52
2021/11/06 08:38:01;;;;;;;10.40;9.27;;;;;;;9.67;57.82;99875.22;5114292;28;20042;-52
2021/11/06 08:40:28;;;;;;;11.27;8.38;;;;;;;9.78;57.60;99867.03;5114280;28;20080;-52
2021/11/06 08:42:54;;;;;;;15.43;9.98;;;;;;;9.94;57.54;99875.81;5114176;28;20080;-52
2021/11/06 08:45:21;;;;;;;468.55;355.42;;;;;;;10.00;57.29;99881.25;5132663;28;20023;-52
2021/11/06 08:47:48;;;;;;;64.95;52.65;;;;;;;10.07;57.01;99888.44;5132751;28;20024;-51
2021/11/06 08:50:20;;;;;;;59.63;48.60;;;;;;;9.90;56.98;99883.22;5132682;28;20015;-52
2021/11/06 08:52:48;;;;;;;19.75;13.68;;;;;;;9.74;57.08;99880.63;5132664;28;20065;-52
2021/11/06 08:55:15;;;;;;;24.90;17.98;;;;;;;9.75;57.63;99892.75;5132573;28;20057;-51
2021/11/06 08:57:42;;;;;;;14.57;9.95;;;;;;;9.84;56.95;99885.69;5114144;28;20016;-52
2021/11/06 09:00:12;;;;;;;16.08;11.13;;;;;;;9.96;57.15;99885.19;5132538;28;20019;-52
2021/11/06 09:02:38;;;;;;;10.07;8.43;;;;;;;10.25;56.34;99888.25;5133042;28;20055;-51
2021/11/06 09:05:06;;;;;;;9.60;7.93;;;;;;;10.35;55.63;99891.53;5132381;28;20023;-51
2021/11/06 09:07:33;;;;;;;11.32;8.55;;;;;;;10.36;55.43;99891.34;5132165;28;20380;-52
2021/11/06 09:10:00;;;;;;;12.13;8.75;;;;;;;10.34;55.29;99890.72;5132541;28;20033;-51
2021/11/06 09:12:26;;;;;;;11.35;8.43;;;;;;;10.34;55.22;99884.63;5113963;28;20062;-51
2021/11/06 09:14:52;;;;;;;11.63;8.80;;;;;;;10.36;55.11;99890.50;5113976;28;20022;-52
2021/11/06 09:17:18;;;;;;;10.65;8.60;;;;;;;10.20;55.28;99894.81;5132362;28;20019;-52
2021/11/06 09:19:44;;;;;;;14.70;9.73;;;;;;;10.12;56.29;99886.13;5132356;28;20052;-52
2021/11/06 09:22:10;;;;;;;12.27;8.77;;;;;;;10.42;55.94;99895.09;5113884;28;20515;-52
2021/11/06 09:24:36;;;;;;;10.13;8.00;;;;;;;10.42;55.23;99894.28;5113823;28;20575;-52
2021/11/06 09:27:01;;;;;;;12.63;8.45;;;;;;;10.28;55.58;99896.59;5132307;28;20500;-51
2021/11/06 09:29:27;;;;;;;9.88;8.15;;;;;;;10.24;55.27;99895.31;5113819;28;20015;-52
2021/11/06 09:31:53;;;;;;;13.32;8.32;;;;;;;10.17;56.09;99896.94;5132254;28;20512;-53
2021/11/06 09:34:19;;;;;;;13.13;8.27;;;;;;;10.25;55.70;99894.28;5132184;28;20445;-52
2021/11/06 09:36:44;;;;;;;10.23;8.15;;;;;;;10.22;55.68;99899.06;5132208;28;20019;-51
2021/11/06 09:39:11;;;;;;;14.25;8.35;;;;;;;10.20;55.49;99902.69;5132168;28;20019;-52
2021/11/06 09:41:38;;;;;;;11.75;8.27;;;;;;;10.16;55.64;99903.16;5132105;28;20027;-52
2021/11/06 09:44:04;;;;;;;12.55;7.50;;;;;;;10.12;55.74;99909.72;5132078;28;20022;-52
2021/11/06 09:46:30;;;;;;;14.30;8.07;;;;;;;10.15;55.78;99910.22;5132850;27;20023;-52
2021/11/06 09:48:56;;;;;;;11.43;7.72;;;;;;;10.24;55.66;99911.03;5135841;27;20515;-52
2021/11/06 09:51:22;;;;;;;8.85;7.93;;;;;;;10.35;55.18;99908.06;5135751;27;20031;-52
2021/11/06 09:53:51;;;;;;;9.98;8.18;;;;;;;10.30;55.43;99910.41;5135765;27;20046;-52
2021/11/06 09:56:23;;;;;;;11.93;8.48;;;;;;;10.22;55.66;99905.13;5117281;27;20023;-52
2021/11/06 09:58:50;;;;;;;13.27;8.75;;;;;;;10.25;55.57;99904.78;5117239;27;20035;-52
2021/11/06 10:01:16;;;;;;;11.48;7.97;;;;;;;10.23;55.46;99906.75;5117167;27;20015;-52
2021/11/06 10:03:43;;;;;;;12.68;9.05;;;;;;;10.14;55.66;99911.22;5135540;27;20055;-53
2021/11/06 10:06:28;;;;;;;10.73;8.25;;;;;;;10.26;55.45;99909.06;5135470;27;20016;-52
2021/11/06 10:08:57;;;;;;;11.82;8.85;;;;;;;10.23;55.41;99913.81;5135303;27;20073;-52
2021/11/06 10:11:26;;;;;;;14.02;8.95;;;;;;;10.26;55.72;99914.31;5116936;27;20046;-52
2021/11/06 10:14:03;;;;;;;14.63;9.30;;;;;;;10.31;55.40;99914.66;5116919;27;20027;-52
2021/11/06 10:16:53;;;;;;;12.02;9.02;;;;;;;10.44;55.32;99915.91;5135421;27;20027;-52
2021/11/06 10:19:31;;;;;;;11.35;9.27;;;;;;;10.63;54.88;99912.91;5135290;27;20028;-52
2021/11/06 10:22:14;;;;;;;9.82;8.18;;;;;;;10.65;54.74;99912.75;5135311;27;20027;-52
2021/11/06 10:24:45;;;;;;;12.30;9.20;;;;;;;10.72;54.73;99911.06;5135162;27;20024;-52
2021/11/06 10:27:22;;;;;;;10.15;8.80;;;;;;;10.91;54.08;99921.16;5116663;27;20027;-52
2021/11/06 10:30:11;;;;;;;17.35;9.40;;;;;;;11.05;54.10;99906.47;5116686;27;20153;-52
2021/11/06 10:32:43;;;;;;;10.75;8.73;;;;;;;11.08;53.26;99910.56;5135083;27;20062;-52
2021/11/06 10:35:13;;;;;;;12.38;8.88;;;;;;;10.86;53.69;99906.91;5135026;27;20400;-52
2021/11/06 10:37:40;;;;;;;11.95;9.80;;;;;;;10.67;53.80;99913.41;5134908;27;20023;-52
2021/11/06 10:40:09;;;;;;;15.73;9.13;;;;;;;10.52;54.48;99915.88;5134784;27;20030;-52
2021/11/06 10:42:47;;;;;;;14.07;9.77;;;;;;;10.48;54.70;99912.78;5134730;27;20472;-52
2021/11/06 10:45:15;;;;;;;12.85;8.75;;;;;;;10.61;54.65;99912.25;5116399;27;20077;-52
2021/11/06 10:47:59;;;;;;;11.20;9.45;;;;;;;10.74;54.27;99912.50;5134761;27;20022;-52
2021/11/06 10:50:45;;;;;;;11.07;9.07;;;;;;;10.91;54.04;99908.03;5134754;27;20068;-52
2021/11/06 10:53:13;;;;;;;13.32;9.02;;;;;;;10.95;53.81;99901.44;5116263;27;20059;-52
2021/11/06 10:55:42;;;;;;;14.15;9.48;;;;;;;10.85;53.87;99900.03;5134629;27;20102;-52
2021/11/06 10:58:23;;;;;;;12.73;9.63;;;;;;;10.90;54.00;99898.50;5115578;27;20400;-52
2021/11/06 11:01:11;;;;;;;11.38;9.27;;;;;;;10.97;53.85;99888.13;5134485;27;20411;-52
2021/11/06 11:03:42;;;;;;;12.20;10.27;;;;;;;11.05;53.78;99887.28;5134469;27;20029;-52
2021/11/06 11:06:15;;;;;;;10.32;9.27;;;;;;;11.24;53.21;99881.53;5134301;27;20027;-52
2021/11/06 11:08:49;;;;;;;14.18;10.43;;;;;;;11.22;52.95;99878.28;5134079;27;20075;-52
2021/11/06 11:11:21;;;;;;;12.00;9.77;;;;;;;11.23;53.10;99877.28;5134285;27;20024;-52
2021/11/06 11:13:49;;;;;;;15.65;10.15;;;;;;;11.24;52.53;99871.03;5134243;27;20087;-52
2021/11/06 11:16:16;;;;;;;12.13;8.75;;;;;;;11.23;52.64;99861.53;5115601;27;20038;-52
2021/11/06 11:18:45;;;;;;;14.65;10.43;;;;;;;11.33;52.99;99859.47;5134135;27;20052;-52
2021/11/06 11:21:20;;;;;;;15.52;9.00;;;;;;;11.54;52.47;99871.94;5133957;27;20021;-52
2021/11/06 11:23:51;;;;;;;11.90;8.80;;;;;;;11.62;51.97;99865.00;5133978;27;20026;-52
2021/11/06 11:26:19;;;;;;;12.50;9.48;;;;;;;11.55;52.16;99860.44;5115448;27;20027;-52
2021/11/06 11:28:47;;;;;;;10.13;8.50;;;;;;;11.37;52.24;99862.56;5115428;27;20023;-51
2021/11/06 11:31:13;;;;;;;13.57;8.40;;;;;;;11.37;52.69;99863.38;5133792;27;20020;-52
2021/11/06 11:33:44;;;;;;;11.73;9.02;;;;;;;11.39;52.66;99863.22;5133870;27;20490;-52